Detalii statie GENERAL AGRO [00001CEA]

Toti senzorii

Date Temperatura solului [C]Precipitatii [mm]Voltaj baterie [mV]HC Air temperature [C]HC Relative humidity [%]Punctul de roua [C]
medieminmaxsumaultimamedieminmaxmediemediemin
2017-12-10 22:00:00 3.8 3.8 4 0 6756 -0.03 -0.19 0.05 0 0 0
2017-12-10 22:30:00 3.8 3.8 3.9 0 6748 -0.31 -0.61 0.03 0 0 0
2017-12-10 23:00:00 3.7 3.7 3.9 0 6748 -0.61 -0.82 -0.37 0 0 0
2017-12-10 23:30:00 3.6 3.6 3.8 0 6748 -0.67 -0.87 -0.47 0 0 0
2017-12-11 00:00:00 3.6 3.5 3.8 0 6748 -0.61 -0.78 -0.42 0 0 0
2017-12-11 00:30:00 3.5 3.5 3.6 0 6738 -0.66 -0.86 -0.42 0 0 0
2017-12-11 01:00:00 3.5 3.5 3.6 0 6748 -0.52 -0.64 -0.44 0 0 0
2017-12-11 01:30:00 3.5 3.4 3.6 0 6738 -0.31 -0.39 -0.27 0 0 0
2017-12-11 02:00:00 3.5 3.3 3.7 0 6748 0.06 -0.14 0.13 0 0 0
2017-12-11 02:30:00 3.5 3.5 3.6 0 6738 0.21 0.16 0.28 0 0 0
2017-12-11 03:00:00 3.5 3.4 3.6 0 6738 0.21 0.18 0.26 0 0 0
2017-12-11 03:30:00 3.4 3.4 3.5 0 6738 0.36 0.32 0.42 0 0 0
2017-12-11 04:00:00 3.4 3.4 3.5 0 6738 0.34 0.29 0.42 0 0 0
2017-12-11 04:30:00 3.3 3.2 3.4 0 6738 0.23 -0.12 0.48 0 0 0
2017-12-11 05:00:00 3.4 3.4 3.5 0 6738 -0.05 -0.14 0.11 0 0 0
2017-12-11 05:30:00 3.3 3.3 3.4 0 6738 -0.16 -0.26 -0.05 0 0 0
2017-12-11 06:00:00 3.2 3.2 3.3 0 6738 -0.17 -0.27 -0.01 0 0 0
2017-12-11 06:30:00 3.3 3.2 3.5 0 6728 -0.12 -0.16 -0.08 0 0 0
2017-12-11 07:00:00 3.3 3.2 3.4 0 6728 -0.01 -0.07 0.12 0 0 0
2017-12-11 07:30:00 3.2 3.1 3.3 0 6728 0.12 0.02 0.26 0 0 0
2017-12-11 08:00:00 3.2 3.1 3.3 0 6738 0 -0.32 0.26 0 0 0
2017-12-11 08:30:00 3.1 3.1 3.2 0 6786 -0.4 -0.54 -0.29 0 0 0
2017-12-11 09:00:00 3.2 3.2 3.2 0 7020 0.6 -0.05 1.29 0 0 0
2017-12-11 09:30:00 3.2 3.1 3.3 0 7070 1.66 1.19 2.23 0 0 0
2017-12-11 10:00:00 3.3 3.3 3.5 0 6942 1.62 1.44 1.9 0 0 0
2017-12-11 10:30:00 3.4 3.4 3.6 0 6894 1.9 1.78 2.04 0 0 0
2017-12-11 11:00:00 3.5 3.4 3.6 0 7118 2.65 1.98 3.62 0 0 0
2017-12-11 11:30:00 3.7 3.6 3.8 0 7050 4.52 3.99 4.81 0 0 0
2017-12-11 12:00:00 3.9 3.8 4.1 0 6952 4.98 4.67 5.14 0 0 0
2017-12-11 12:30:00 4.1 4.1 4.2 0 6904 4.73 4.55 4.94 0 0 0
2017-12-11 13:00:00 4.2 4.2 4.3 0 6884 5.08 4.75 5.31 0 0 0
2017-12-11 13:30:00 4.3 4.1 4.4 0 6864 5.31 5.13 5.59 0 0 0
2017-12-11 14:00:00 4.3 4.2 4.4 0 6874 6.03 5.42 6.64 0 0 0
2017-12-11 14:30:00 4.4 4.4 4.6 0 6854 6.7 6.63 6.8 0 0 0
2017-12-11 15:00:00 4.5 4.5 4.6 0 6834 6.35 5.96 6.66 0 0 0
2017-12-11 15:30:00 4.5 4.5 4.6 0 6826 5.73 5.58 5.83 0 0 0
2017-12-11 16:00:00 4.5 4.5 4.6 0 6816 4.96 4.65 5.34 0 0 0
2017-12-11 16:30:00 4.5 4.4 4.6 0 6806 4.39 4.24 4.6 0 0 0
2017-12-11 17:00:00 4.4 4.4 4.5 0 6816 3.84 3.53 4.11 0 0 0
2017-12-11 17:30:00 4.4 4.4 4.5 0 6796 3.44 3.12 3.66 0 0 0
2017-12-11 18:00:00 4.2 4.2 4.4 0 6796 2.8 2.49 3.18 0 0 0
2017-12-11 18:30:00 4.2 4.1 4.4 0 6786 2.64 2.37 3.07 0 0 0
2017-12-11 19:00:00 4.1 4.1 4.2 0 6786 2.3 2.21 2.36 0 0 0
2017-12-11 19:30:00 4.1 4 4.2 0 6776 2.63 2.53 2.7 0 0 0
2017-12-11 20:00:00 4 4 4 0 6766 3.09 2.59 3.42 0 0 0
2017-12-11 20:30:00 3.9 3.9 4 0 6766 3.73 3.13 4.38 0 0 0
2017-12-11 21:00:00 4 4 4.1 0 6776 3.28 2.91 3.69 0 0 0
2017-12-11 21:30:00 3.9 3.9 4.1 0 6756 2.2 1.84 2.69 0 0 0